createdAt,value
2022-11-24T00:12:43.631Z,7.10
2022-11-24T00:32:43.642Z,7.19
2022-11-24T00:52:43.668Z,7.14
2022-11-24T01:12:43.663Z,7.15
2022-11-24T01:32:43.568Z,7.08
2022-11-24T01:52:43.575Z,7.08
2022-11-24T02:12:43.586Z,7.04
2022-11-24T02:32:43.587Z,7.09
2022-11-24T02:52:43.599Z,7.27
2022-11-24T03:12:43.603Z,7.22
2022-11-24T03:32:43.572Z,7.37
2022-11-24T03:52:43.577Z,7.48
2022-11-24T04:12:43.585Z,7.45
2022-11-24T04:32:43.498Z,7.40
2022-11-24T04:52:43.508Z,7.50
2022-11-24T05:12:43.583Z,7.61
2022-11-24T05:32:43.528Z,7.61
2022-11-24T05:52:43.534Z,7.69
2022-11-24T06:12:43.482Z,7.80
2022-11-24T06:32:43.455Z,7.83
2022-11-24T06:52:43.466Z,7.92
2022-11-24T07:12:43.472Z,7.92
2022-11-24T07:32:43.508Z,7.90
2022-11-24T07:52:43.495Z,7.81
2022-11-24T08:12:43.416Z,7.77
2022-11-24T08:32:43.409Z,8.10
2022-11-24T08:52:43.423Z,8.52
2022-11-24T09:12:43.432Z,8.63
2022-11-24T09:32:43.447Z,8.74
2022-11-24T09:52:43.447Z,9.13
2022-11-24T10:12:43.373Z,9.15
2022-11-24T10:32:43.366Z,8.74
2022-11-24T10:52:43.459Z,7.40
2022-11-24T11:12:43.442Z,7.34
2022-11-24T11:32:43.305Z,7.67
2022-11-24T11:52:43.307Z,7.74
2022-11-24T12:12:43.320Z,7.82
2022-11-24T12:32:43.435Z,8.03
2022-11-24T12:52:43.353Z,8.18
2022-11-24T13:12:43.419Z,8.20
2022-11-24T13:32:43.438Z,8.29
2022-11-24T13:52:43.482Z,8.50
2022-11-24T14:12:43.447Z,8.06
2022-11-24T14:32:43.307Z,7.63
2022-11-24T14:52:43.353Z,7.36
2022-11-24T15:12:43.399Z,7.33
2022-11-24T15:32:43.220Z,7.34
2022-11-24T15:52:43.233Z,7.05
2022-11-24T16:12:43.321Z,7.11
2022-11-24T16:32:43.159Z,6.42
2022-11-24T16:52:43.193Z,6.48
2022-11-24T17:12:43.317Z,6.21
2022-11-24T17:32:43.304Z,6.11
2022-11-24T17:52:43.159Z,5.89
2022-11-24T18:12:43.199Z,5.62
2022-11-24T18:32:43.129Z,5.09
2022-11-24T18:52:43.140Z,5.10
2022-11-24T19:12:43.246Z,5.46
2022-11-24T19:32:43.237Z,5.58
2022-11-24T19:52:43.174Z,5.16
2022-11-24T20:12:43.213Z,4.65
2022-11-24T20:32:43.223Z,3.98
2022-11-24T20:52:43.193Z,4.21
2022-11-24T21:12:43.175Z,4.16
2022-11-24T21:32:43.062Z,3.40
2022-11-24T21:52:43.118Z,3.19
2022-11-24T22:12:43.288Z,2.98
2022-11-24T22:32:43.085Z,3.10
2022-11-24T22:52:43.095Z,2.81
2022-11-24T23:12:43.105Z,2.53
2022-11-24T23:32:43.119Z,2.41
2022-11-24T23:52:43.118Z,2.42
